createdAt,value
2023-02-11T00:01:29.292Z,-4.59
2023-02-11T00:04:32.361Z,-4.67
2023-02-11T00:07:35.867Z,-4.72
2023-02-11T00:10:38.235Z,-4.75
2023-02-11T00:13:40.977Z,-4.80
2023-02-11T00:16:43.501Z,-4.84
2023-02-11T00:19:50.577Z,-4.84
2023-02-11T00:22:52.954Z,-4.86
2023-02-11T00:25:55.219Z,-4.86
2023-02-11T00:28:57.783Z,-4.92
2023-02-11T00:32:05.426Z,-4.96
2023-02-11T00:35:08.127Z,-5.01
2023-02-11T00:38:10.492Z,-5.06
2023-02-11T00:41:14.463Z,-5.12
2023-02-11T00:44:17.058Z,-5.17
2023-02-11T00:47:19.323Z,-5.18
2023-02-11T00:50:21.737Z,-5.17
2023-02-11T00:53:24.016Z,-5.14
2023-02-11T00:56:27.248Z,-5.08
2023-02-11T00:59:29.494Z,-5.09
2023-02-11T01:02:32.313Z,-5.13
2023-02-11T01:05:34.888Z,-5.12
2023-02-11T01:08:40.044Z,-5.09
2023-02-11T01:11:42.556Z,-5.05
2023-02-11T01:14:44.835Z,-4.99
2023-02-11T01:17:47.310Z,-4.91
2023-02-11T01:20:50.966Z,-4.88
2023-02-11T01:23:53.544Z,-4.80
2023-02-11T01:26:56.324Z,-4.72
2023-02-11T01:29:59.012Z,-4.61
2023-02-11T01:33:01.455Z,-4.58
2023-02-11T01:36:05.414Z,-4.42
2023-02-11T01:39:08.905Z,-4.37
2023-02-11T01:42:23.302Z,-4.27
2023-02-11T01:45:47.501Z,-4.13
2023-02-11T01:48:55.924Z,-4.10
2023-02-11T01:52:10.802Z,-4.12
2023-02-11T01:55:32.858Z,-4.13
2023-02-11T01:58:39.126Z,-4.19
2023-02-11T02:01:48.653Z,-4.30
2023-02-11T02:04:57.854Z,-4.31
2023-02-11T02:08:21.670Z,-4.38
2023-02-11T02:11:24.147Z,-4.31
2023-02-11T02:14:26.898Z,-4.28
2023-02-11T02:17:41.737Z,-4.29
2023-02-11T02:21:05.727Z,-4.30
2023-02-11T02:24:44.848Z,-4.34
2023-02-11T02:28:12.886Z,-4.37
2023-02-11T02:31:32.051Z,-4.39
2023-02-11T02:34:44.796Z,-4.37
2023-02-11T02:38:02.067Z,-4.42
2023-02-11T02:41:10.631Z,-4.46
2023-02-11T02:44:12.994Z,-4.54
2023-02-11T02:47:15.518Z,-4.59
2023-02-11T02:50:25.405Z,-4.63
2023-02-11T02:53:53.356Z,-4.70
2023-02-11T02:57:05.208Z,-4.74
2023-02-11T03:00:16.856Z,-4.76
2023-02-11T03:03:57.096Z,-4.75
2023-02-11T03:07:24.827Z,-4.79
2023-02-11T03:10:31.604Z,-4.84
2023-02-11T03:13:38.025Z,-4.83
2023-02-11T03:16:40.729Z,-4.75
2023-02-11T03:19:46.171Z,-4.89
2023-02-11T03:23:02.991Z,-4.97
2023-02-11T03:26:07.976Z,-5.02
2023-02-11T03:29:14.879Z,-5.11
2023-02-11T03:32:24.649Z,-5.20
2023-02-11T03:36:17.864Z,-5.18
2023-02-11T03:39:27.418Z,-5.20
2023-02-11T03:42:36.777Z,-5.20
2023-02-11T03:45:40.186Z,-5.28
2023-02-11T03:48:48.458Z,-5.08
2023-02-11T03:51:53.334Z,-5.22
2023-02-11T03:55:00.252Z,-5.29
2023-02-11T03:58:02.560Z,-5.33
2023-02-11T04:01:06.336Z,-5.37
2023-02-11T04:04:08.642Z,-5.26
2023-02-11T04:07:12.863Z,-5.28
2023-02-11T04:10:15.474Z,-5.09
2023-02-11T04:13:17.806Z,-5.02
2023-02-11T04:16:20.287Z,-4.93
2023-02-11T04:19:22.743Z,-4.84
2023-02-11T04:22:25.174Z,-4.81
2023-02-11T04:25:27.528Z,-4.75
2023-02-11T04:28:30.229Z,-4.67
2023-02-11T04:31:32.676Z,-4.62
2023-02-11T04:34:35.189Z,-4.57
2023-02-11T04:37:37.575Z,-4.50
2023-02-11T04:40:40.698Z,-4.47
2023-02-11T04:43:43.108Z,-4.47
2023-02-11T04:46:45.428Z,-4.51
2023-02-11T04:49:48.217Z,-4.53
2023-02-11T04:52:50.640Z,-4.61
2023-02-11T04:55:53.049Z,-4.70
2023-02-11T04:58:55.488Z,-4.70
2023-02-11T05:01:58.111Z,-4.69
2023-02-11T05:05:00.525Z,-4.71
2023-02-11T05:08:02.811Z,-4.75
2023-02-11T05:11:05.200Z,-4.76
2023-02-11T05:14:07.919Z,-4.74
2023-02-11T05:17:10.367Z,-4.78
2023-02-11T05:20:12.792Z,-4.78
2023-02-11T05:23:15.181Z,-4.78
2023-02-11T05:26:18.401Z,-4.81
2023-02-11T05:29:20.709Z,-4.80
2023-02-11T05:32:23.077Z,-4.85
2023-02-11T05:35:25.489Z,-4.92
2023-02-11T05:38:28.480Z,-4.96
2023-02-11T05:41:30.920Z,-5.00
2023-02-11T05:44:33.344Z,-5.05
2023-02-11T05:47:35.709Z,-5.14
2023-02-11T05:50:38.175Z,-5.21
2023-02-11T05:53:40.565Z,-5.25
2023-02-11T05:56:44.838Z,-5.27
2023-02-11T05:59:47.372Z,-5.31
2023-02-11T06:02:49.761Z,-5.33
2023-02-11T06:05:52.369Z,-5.36
2023-02-11T06:08:54.903Z,-5.25
2023-02-11T06:11:57.240Z,-5.25
2023-02-11T06:14:59.662Z,-5.25
2023-02-11T06:18:02.045Z,-5.22
2023-02-11T06:21:08.626Z,-5.19
2023-02-11T06:24:11.106Z,-5.18
2023-02-11T06:27:13.479Z,-5.17
2023-02-11T06:30:15.951Z,-5.21
2023-02-11T06:33:18.280Z,-5.21
2023-02-11T06:36:22.429Z,-5.19
2023-02-11T06:39:25.203Z,-5.22
2023-02-11T06:42:27.756Z,-5.19
2023-02-11T06:45:30.178Z,-5.09
2023-02-11T06:48:33.955Z,-4.95
2023-02-11T06:51:36.460Z,-4.91
2023-02-11T06:54:38.915Z,-4.89
2023-02-11T06:57:41.281Z,-4.91
2023-02-11T07:00:43.663Z,-4.92
2023-02-11T07:03:47.103Z,-4.83
2023-02-11T07:06:49.328Z,-4.81
2023-02-11T07:09:51.827Z,-4.78
2023-02-11T07:12:54.876Z,-4.73
2023-02-11T07:15:58.321Z,-4.73
2023-02-11T07:19:01.060Z,-4.57
2023-02-11T07:22:03.748Z,-4.44
2023-02-11T07:25:06.412Z,-4.31
2023-02-11T07:28:08.806Z,-4.11
2023-02-11T07:31:15.259Z,-3.88
2023-02-11T07:34:17.801Z,-3.47
2023-02-11T07:37:20.236Z,-2.74
2023-02-11T07:40:22.571Z,-2.79
2023-02-11T07:43:24.851Z,-2.92
2023-02-11T07:46:28.285Z,-2.92
2023-02-11T07:49:30.732Z,-2.84
2023-02-11T07:52:33.143Z,-2.34
2023-02-11T07:55:35.870Z,-1.38
2023-02-11T07:58:38.511Z,-1.01
2023-02-11T08:01:40.845Z,-0.73
2023-02-11T08:04:43.398Z,-0.33
2023-02-11T08:07:45.817Z,0.24
2023-02-11T08:10:48.322Z,0.56
2023-02-11T08:13:51.087Z,0.26
2023-02-11T08:16:53.566Z,0.28
2023-02-11T08:19:56.154Z,-0.08
2023-02-11T08:22:58.629Z,-0.03
2023-02-11T08:26:05.632Z,0.73
2023-02-11T08:29:11.636Z,0.55
2023-02-11T08:32:14.045Z,0.22
2023-02-11T08:35:16.459Z,-0.07
2023-02-11T08:38:19.104Z,-0.41
2023-02-11T08:41:21.454Z,-0.42
2023-02-11T08:44:24.961Z,-0.67
2023-02-11T08:47:27.340Z,-0.68
2023-02-11T08:50:29.756Z,-0.85
2023-02-11T08:53:32.595Z,-0.73
2023-02-11T08:56:35.236Z,-0.74
2023-02-11T08:59:40.156Z,-0.71
2023-02-11T09:02:43.194Z,-0.69
2023-02-11T09:05:47.869Z,-0.50
2023-02-11T09:08:53.843Z,-0.30
2023-02-11T09:11:57.523Z,-0.27
2023-02-11T09:15:00.099Z,-0.07
2023-02-11T09:18:02.974Z,0.12
2023-02-11T09:21:08.653Z,0.08
2023-02-11T09:24:11.930Z,0.17
2023-02-11T09:27:14.193Z,0.39
2023-02-11T09:30:16.599Z,0.64
2023-02-11T09:33:18.957Z,0.75
2023-02-11T09:36:23.799Z,1.14
2023-02-11T09:39:27.004Z,1.83
2023-02-11T09:43:09.121Z,2.10
2023-02-11T09:46:16.190Z,2.64
2023-02-11T09:49:23.356Z,2.77
2023-02-11T09:52:51.849Z,3.11
2023-02-11T09:56:02.802Z,3.29
2023-02-11T09:59:05.291Z,3.73
2023-02-11T10:02:20.520Z,3.71
2023-02-11T10:05:46.823Z,3.34
2023-02-11T10:09:26.579Z,3.23
2023-02-11T10:13:10.327Z,3.37
2023-02-11T10:16:27.516Z,3.43
2023-02-11T10:20:03.669Z,3.28
2023-02-11T10:23:31.112Z,3.49
2023-02-11T10:26:34.181Z,3.58
2023-02-11T10:29:41.274Z,3.64
2023-02-11T10:32:49.854Z,3.46
2023-02-11T10:35:52.244Z,3.62
2023-02-11T10:38:54.637Z,3.65
2023-02-11T10:42:02.900Z,3.78
2023-02-11T10:45:07.538Z,4.38
2023-02-11T10:48:43.146Z,4.80
2023-02-11T10:51:45.559Z,4.80
2023-02-11T10:55:04.312Z,4.75
2023-02-11T10:58:06.709Z,5.39
2023-02-11T11:01:23.512Z,5.64
2023-02-11T11:04:26.943Z,5.45
2023-02-11T11:07:31.297Z,5.14
2023-02-11T11:10:46.132Z,5.16
2023-02-11T11:13:54.499Z,5.15
2023-02-11T11:16:56.873Z,4.64
2023-02-11T11:20:29.400Z,4.79
2023-02-11T11:23:32.487Z,5.42
2023-02-11T11:26:44.889Z,5.40
2023-02-11T11:29:50.671Z,5.46
2023-02-11T11:32:53.525Z,5.99
2023-02-11T11:36:07.567Z,6.71
2023-02-11T11:39:22.289Z,6.49
2023-02-11T11:42:30.817Z,5.83
2023-02-11T11:45:33.204Z,5.69
2023-02-11T11:48:39.088Z,5.96
2023-02-11T11:51:45.941Z,6.41
2023-02-11T11:54:56.457Z,6.74
2023-02-11T11:57:59.056Z,6.95
2023-02-11T12:01:16.545Z,7.81
2023-02-11T12:04:57.267Z,8.49
2023-02-11T12:08:22.272Z,8.97
2023-02-11T12:11:52.333Z,7.97
2023-02-11T12:15:24.742Z,7.73
2023-02-11T12:19:15.125Z,7.40
2023-02-11T12:22:42.390Z,7.33
2023-02-11T12:26:20.347Z,7.01
2023-02-11T12:29:52.160Z,6.60
2023-02-11T12:33:05.459Z,7.23
2023-02-11T12:36:26.808Z,7.21
2023-02-11T12:39:32.559Z,6.78
2023-02-11T12:43:18.373Z,6.43
2023-02-11T12:46:32.846Z,6.97
2023-02-11T12:49:56.078Z,7.38
2023-02-11T12:53:12.895Z,7.34
2023-02-11T12:56:40.905Z,7.42
2023-02-11T13:00:08.619Z,7.41
2023-02-11T13:03:45.290Z,7.59
2023-02-11T13:06:54.406Z,8.04
2023-02-11T13:10:15.849Z,8.86
2023-02-11T13:13:33.488Z,9.06
2023-02-11T13:16:41.995Z,9.46
2023-02-11T13:19:53.010Z,9.80
2023-02-11T13:23:25.789Z,9.06
2023-02-11T13:26:38.501Z,8.68
2023-02-11T13:30:04.488Z,8.29
2023-02-11T13:33:20.182Z,8.46
2023-02-11T13:36:28.245Z,8.61
2023-02-11T13:39:31.339Z,8.82
2023-02-11T13:42:47.925Z,9.21
2023-02-11T13:45:52.714Z,9.27
2023-02-11T13:48:55.977Z,9.17
2023-02-11T13:52:01.171Z,8.22
2023-02-11T13:55:23.047Z,7.56
2023-02-11T13:58:28.509Z,7.30
2023-02-11T14:02:22.350Z,6.99
2023-02-11T14:05:51.320Z,6.70
2023-02-11T14:09:00.150Z,6.58
2023-02-11T14:12:24.663Z,6.46
2023-02-11T14:15:38.282Z,6.10
2023-02-11T14:18:50.122Z,6.02
2023-02-11T14:21:52.779Z,5.89
2023-02-11T14:25:02.278Z,5.94
2023-02-11T14:28:23.116Z,5.93
2023-02-11T14:31:48.934Z,5.79
2023-02-11T14:35:10.285Z,5.63
2023-02-11T14:38:41.300Z,5.57
2023-02-11T14:41:49.269Z,5.48
2023-02-11T14:44:57.910Z,5.61
2023-02-11T14:48:08.568Z,5.56
2023-02-11T14:51:23.942Z,5.42
2023-02-11T14:54:29.472Z,5.35
2023-02-11T14:57:31.881Z,5.37
2023-02-11T15:00:35.204Z,5.28
2023-02-11T15:03:43.651Z,5.29
2023-02-11T15:06:51.856Z,5.20
2023-02-11T15:09:55.151Z,5.29
2023-02-11T15:13:00.126Z,5.17
2023-02-11T15:16:08.410Z,5.19
2023-02-11T15:19:38.457Z,5.09
2023-02-11T15:22:45.966Z,5.00
2023-02-11T15:25:59.203Z,4.81
2023-02-11T15:29:02.561Z,4.79
2023-02-11T15:32:16.448Z,4.75
2023-02-11T15:35:21.127Z,4.71
2023-02-11T15:38:26.179Z,4.59
2023-02-11T15:41:38.857Z,4.56
2023-02-11T15:44:42.243Z,4.38
2023-02-11T15:47:53.363Z,4.32
2023-02-11T15:51:00.558Z,4.22
2023-02-11T15:54:20.423Z,4.22
2023-02-11T15:57:25.024Z,4.24
2023-02-11T16:00:50.433Z,4.21
2023-02-11T16:03:53.938Z,4.17
2023-02-11T16:06:57.538Z,4.08
2023-02-11T16:10:02.025Z,4.06
2023-02-11T16:13:08.603Z,4.01
2023-02-11T16:16:23.219Z,3.99
2023-02-11T16:19:29.295Z,3.93
2023-02-11T16:22:38.809Z,3.93
2023-02-11T16:25:43.591Z,3.91
2023-02-11T16:28:51.906Z,3.83
2023-02-11T16:32:11.406Z,3.71
2023-02-11T16:35:18.673Z,3.60
2023-02-11T16:38:22.192Z,3.49
2023-02-11T16:41:26.227Z,3.41
2023-02-11T16:44:30.485Z,3.36
2023-02-11T16:47:35.820Z,3.25
2023-02-11T16:50:46.174Z,3.14
2023-02-11T16:53:49.885Z,3.14
2023-02-11T16:56:53.553Z,3.10
2023-02-11T16:59:57.019Z,3.11
2023-02-11T17:03:00.747Z,2.99
2023-02-11T17:06:07.571Z,3.06
2023-02-11T17:09:37.795Z,3.02
2023-02-11T17:12:42.256Z,3.02
2023-02-11T17:15:46.162Z,3.02
2023-02-11T17:18:50.374Z,2.98
2023-02-11T17:21:54.793Z,2.71
2023-02-11T17:24:59.401Z,2.80
2023-02-11T17:28:02.878Z,2.79
2023-02-11T17:31:10.773Z,2.81
2023-02-11T17:34:15.452Z,2.82
2023-02-11T17:37:19.288Z,2.82
2023-02-11T17:40:23.913Z,2.83
2023-02-11T17:43:28.899Z,2.85
2023-02-11T17:46:32.974Z,2.82
2023-02-11T17:49:36.948Z,2.86
2023-02-11T17:52:40.664Z,2.86
2023-02-11T17:55:46.219Z,2.82
2023-02-11T17:58:50.820Z,2.82
2023-02-11T18:01:55.012Z,2.79
2023-02-11T18:04:59.359Z,2.83
2023-02-11T18:08:07.558Z,2.80
2023-02-11T18:11:13.714Z,2.82
2023-02-11T18:14:17.716Z,2.78
2023-02-11T18:17:23.706Z,2.80
2023-02-11T18:20:27.374Z,2.77
2023-02-11T18:23:31.244Z,2.76
2023-02-11T18:26:35.813Z,2.73
2023-02-11T18:29:39.722Z,2.71
2023-02-11T18:32:44.492Z,2.67
2023-02-11T18:35:49.820Z,2.66
2023-02-11T18:38:55.228Z,2.64
2023-02-11T18:42:00.299Z,2.63
2023-02-11T18:45:04.369Z,2.61
2023-02-11T18:48:09.529Z,2.59
2023-02-11T18:51:22.084Z,2.54
2023-02-11T18:54:27.453Z,2.46
2023-02-11T18:57:31.549Z,2.38
2023-02-11T19:00:37.096Z,2.30
2023-02-11T19:03:41.539Z,2.22
2023-02-11T19:06:49.458Z,2.14
2023-02-11T19:09:52.535Z,2.07
2023-02-11T19:12:59.656Z,2.05
2023-02-11T19:16:11.066Z,1.97
2023-02-11T19:19:18.182Z,1.87
2023-02-11T19:22:24.643Z,1.83
2023-02-11T19:25:28.786Z,1.84
2023-02-11T19:28:33.291Z,1.78
2023-02-11T19:31:37.761Z,1.71
2023-02-11T19:34:44.502Z,1.60
2023-02-11T19:37:49.186Z,1.58
2023-02-11T19:40:59.870Z,1.55
2023-02-11T19:44:06.055Z,1.54
2023-02-11T19:47:11.356Z,1.56
2023-02-11T19:50:16.564Z,1.53
2023-02-11T19:53:20.929Z,1.46
2023-02-11T19:56:25.002Z,1.42
2023-02-11T19:59:29.127Z,1.37
2023-02-11T20:02:38.191Z,1.32
2023-02-11T20:05:47.896Z,1.23
2023-02-11T20:09:07.170Z,1.15
2023-02-11T20:12:12.895Z,1.13
2023-02-11T20:15:18.480Z,1.08
2023-02-11T20:18:22.001Z,1.06
2023-02-11T20:21:31.934Z,0.95
2023-02-11T20:24:35.990Z,0.91
2023-02-11T20:27:39.991Z,0.92
2023-02-11T20:30:43.911Z,0.87
2023-02-11T20:33:48.894Z,0.86
2023-02-11T20:36:52.554Z,0.83
2023-02-11T20:39:56.192Z,0.80
2023-02-11T20:43:01.009Z,0.74
2023-02-11T20:46:08.743Z,0.73
2023-02-11T20:49:18.233Z,0.61
2023-02-11T20:52:22.777Z,0.64
2023-02-11T20:55:28.363Z,0.66
2023-02-11T20:58:33.667Z,0.66
2023-02-11T21:01:44.085Z,0.69
2023-02-11T21:04:48.235Z,0.64
2023-02-11T21:07:53.523Z,0.64
2023-02-11T21:10:59.327Z,0.66
2023-02-11T21:14:03.199Z,0.69
2023-02-11T21:17:09.168Z,0.63
2023-02-11T21:20:12.950Z,0.77
2023-02-11T21:23:16.355Z,0.80
2023-02-11T21:26:19.722Z,0.84
2023-02-11T21:29:23.377Z,0.89
2023-02-11T21:32:27.939Z,0.83
2023-02-11T21:35:38.436Z,0.80
2023-02-11T21:38:42.722Z,0.75
2023-02-11T21:41:47.626Z,0.67
2023-02-11T21:44:51.338Z,0.58
2023-02-11T21:47:55.093Z,0.50
2023-02-11T21:50:58.364Z,0.43
2023-02-11T21:54:04.769Z,0.39
2023-02-11T21:57:08.196Z,0.34
2023-02-11T22:00:12.606Z,0.32
2023-02-11T22:03:15.410Z,0.20
2023-02-11T22:06:21.956Z,0.12
2023-02-11T22:09:24.747Z,-0.01
2023-02-11T22:12:27.398Z,-0.04
2023-02-11T22:15:30.031Z,-0.03
2023-02-11T22:18:33.164Z,-0.09
2023-02-11T22:21:37.596Z,-0.10
2023-02-11T22:24:42.426Z,-0.06
2023-02-11T22:27:45.331Z,-0.08
2023-02-11T22:30:53.717Z,-0.06
2023-02-11T22:33:56.989Z,-0.10
2023-02-11T22:36:59.423Z,-0.17
2023-02-11T22:40:01.874Z,-0.15
2023-02-11T22:43:04.400Z,-0.15
2023-02-11T22:46:08.008Z,-0.18
2023-02-11T22:49:14.553Z,-0.21
2023-02-11T22:52:17.741Z,-0.24
2023-02-11T22:55:21.279Z,-0.24
2023-02-11T22:58:25.154Z,-0.19
2023-02-11T23:01:28.780Z,-0.21
2023-02-11T23:04:31.083Z,-0.24
2023-02-11T23:07:33.411Z,-0.21
2023-02-11T23:10:37.227Z,-0.16
2023-02-11T23:13:41.391Z,-0.07
2023-02-11T23:16:43.796Z,0.03
2023-02-11T23:19:46.292Z,0.09
2023-02-11T23:22:49.735Z,0.16
2023-02-11T23:25:52.051Z,0.18
2023-02-11T23:28:56.372Z,0.20
2023-02-11T23:31:59.140Z,0.22
2023-02-11T23:35:01.516Z,0.25
2023-02-11T23:38:04.014Z,0.32
2023-02-11T23:41:06.600Z,0.30
2023-02-11T23:44:10.927Z,0.29
2023-02-11T23:47:13.425Z,0.30
2023-02-11T23:50:16.052Z,0.35
2023-02-11T23:53:19.592Z,0.36
2023-02-11T23:56:26.621Z,0.37
2023-02-11T23:59:28.987Z,0.37
